createdAt,value
2018-08-06T00:00:01.471Z,100165.56
2018-08-06T00:02:59.519Z,100164.91
2018-08-06T00:05:57.350Z,100170.64
2018-08-06T00:08:55.728Z,100168.82
2018-08-06T00:11:53.898Z,100175.98
2018-08-06T00:14:52.076Z,100165.87
2018-08-06T00:17:51.215Z,100174.30
2018-08-06T00:20:49.177Z,100170.35
2018-08-06T00:23:47.226Z,100169.45
2018-08-06T00:26:46.443Z,100174.83
2018-08-06T00:29:44.926Z,100166.59
2018-08-06T00:32:44.067Z,100170.02
2018-08-06T00:35:42.009Z,100175.84
2018-08-06T00:38:40.123Z,100176.41
2018-08-06T00:41:38.075Z,100172.86
2018-08-06T00:44:36.079Z,100172.29
2018-08-06T00:47:34.432Z,100175.17
2018-08-06T00:50:33.695Z,100180.14
2018-08-06T00:53:32.235Z,100175.23
2018-08-06T00:56:31.247Z,100182.53
2018-08-06T00:59:29.896Z,100183.55
2018-08-06T01:02:27.857Z,100182.23
2018-08-06T01:05:25.952Z,100183.05
2018-08-06T01:08:24.494Z,100178.10
2018-08-06T01:11:22.471Z,100183.84
2018-08-06T01:14:21.539Z,100184.27
2018-08-06T01:17:19.900Z,100180.66
2018-08-06T01:20:22.671Z,100179.81
2018-08-06T01:23:21.691Z,100182.53
2018-08-06T01:26:19.789Z,100185.67
2018-08-06T01:29:17.974Z,100188.83
2018-08-06T01:32:15.672Z,100187.20
2018-08-06T01:35:14.945Z,100182.81
2018-08-06T01:38:12.910Z,100182.43
2018-08-06T01:41:10.971Z,100182.05
2018-08-06T01:44:10.233Z,100189.49
2018-08-06T01:47:08.463Z,100187.50
2018-08-06T01:50:06.530Z,100184.45
2018-08-06T01:53:04.749Z,100181.11
2018-08-06T01:56:02.878Z,100179.97
2018-08-06T01:59:00.970Z,100182.06
2018-08-06T02:01:58.978Z,100179.39
2018-08-06T02:04:57.143Z,100176.63
2018-08-06T02:07:54.821Z,100174.81
2018-08-06T02:10:52.895Z,100177.48
2018-08-06T02:13:50.833Z,100175.86
2018-08-06T02:16:49.126Z,100169.52
2018-08-06T02:19:48.495Z,100179.63
2018-08-06T02:22:46.977Z,100176.77
2018-08-06T02:25:45.531Z,100174.26
2018-08-06T02:28:43.827Z,100179.06
2018-08-06T02:31:41.665Z,100181.16
2018-08-06T02:34:42.817Z,100179.25
2018-08-06T02:37:40.922Z,100177.38
2018-08-06T02:40:40.005Z,100178.99
2018-08-06T02:43:37.839Z,100179.28
2018-08-06T02:46:35.948Z,100176.80
2018-08-06T02:49:33.983Z,100179.66
2018-08-06T02:52:32.212Z,100171.48
2018-08-06T02:55:31.267Z,100185.29
2018-08-06T02:58:30.229Z,100187.47
2018-08-06T03:01:28.679Z,100189.27
2018-08-06T03:04:26.720Z,100188.13
2018-08-06T03:07:24.816Z,100190.69
2018-08-06T03:10:22.810Z,100188.22
2018-08-06T03:13:21.250Z,100191.19
2018-08-06T03:16:19.402Z,100189.34
2018-08-06T03:19:17.258Z,100189.26
2018-08-06T03:22:15.473Z,100183.33
2018-08-06T03:25:13.730Z,100181.44
2018-08-06T03:28:12.324Z,100181.48
2018-08-06T03:31:10.897Z,100184.44
2018-08-06T03:34:09.344Z,100191.19
2018-08-06T03:37:07.667Z,100193.34
2018-08-06T03:40:06.932Z,100193.59
2018-08-06T03:43:04.725Z,100192.23
2018-08-06T03:46:02.822Z,100191.45
2018-08-06T03:49:00.927Z,100191.23
2018-08-06T03:51:58.849Z,100196.47
2018-08-06T03:54:58.010Z,100190.84
2018-08-06T03:57:56.186Z,100188.66
2018-08-06T04:00:54.095Z,100199.77
2018-08-06T04:03:52.050Z,100195.31
2018-08-06T04:06:50.226Z,100195.78
2018-08-06T04:09:48.322Z,100194.75
2018-08-06T04:12:46.252Z,100191.06
2018-08-06T04:15:44.518Z,100197.16
2018-08-06T04:18:42.760Z,100202.19
2018-08-06T04:21:41.792Z,100205.92
2018-08-06T04:24:42.941Z,100208.80
2018-08-06T04:27:41.178Z,100204.04
2018-08-06T04:30:40.849Z,100207.39
2018-08-06T04:33:39.035Z,100209.50
2018-08-06T04:36:37.078Z,100203.69
2018-08-06T04:39:35.323Z,100203.17
2018-08-06T04:42:33.486Z,100201.66
2018-08-06T04:45:31.595Z,100201.34
2018-08-06T04:48:29.529Z,100200.23
2018-08-06T04:51:28.684Z,100200.14
2018-08-06T04:54:27.156Z,100207.85
2018-08-06T04:57:25.533Z,100205.31
2018-08-06T05:00:24.615Z,100211.68
2018-08-06T05:03:22.842Z,100208.42
2018-08-06T05:06:20.845Z,100199.20
2018-08-06T05:09:22.324Z,100206.89
2018-08-06T05:12:21.515Z,100209.17
2018-08-06T05:15:20.562Z,100213.72
2018-08-06T05:18:18.789Z,100218.95
2018-08-06T05:21:17.226Z,100219.20
2018-08-06T05:24:16.670Z,100221.44
2018-08-06T05:27:14.850Z,100223.59
2018-08-06T05:30:12.803Z,100221.13
2018-08-06T05:33:10.959Z,100224.69
2018-08-06T05:36:08.750Z,100225.97
2018-08-06T05:39:07.966Z,100231.80
2018-08-06T05:42:05.772Z,100227.80
2018-08-06T05:45:04.030Z,100235.19
2018-08-06T05:48:02.171Z,100226.45
2018-08-06T05:51:02.199Z,100230.13
2018-08-06T05:54:00.524Z,100232.31
2018-08-06T05:56:59.023Z,100234.04
2018-08-06T05:59:57.081Z,100235.22
2018-08-06T06:02:56.176Z,100239.96
2018-08-06T06:05:54.342Z,100241.23
2018-08-06T06:08:53.950Z,100239.56
2018-08-06T06:11:52.496Z,100242.28
2018-08-06T06:14:50.974Z,100245.23
2018-08-06T06:17:49.795Z,100234.85
2018-08-06T06:20:48.121Z,100244.41
2018-08-06T06:23:46.474Z,100248.11
2018-08-06T06:26:44.765Z,100246.66
2018-08-06T06:29:42.910Z,100246.68
2018-08-06T06:32:41.282Z,100250.89
2018-08-06T06:35:39.559Z,100251.85
2018-08-06T06:38:38.093Z,100245.88
2018-08-06T06:41:35.934Z,100243.17
2018-08-06T06:44:33.954Z,100244.39
2018-08-06T06:47:31.953Z,100248.52
2018-08-06T06:50:30.218Z,100248.65
2018-08-06T06:53:28.218Z,100252.16
2018-08-06T06:56:26.440Z,100259.24
2018-08-06T06:59:24.526Z,100253.87
2018-08-06T07:02:22.717Z,100249.47
2018-08-06T07:05:21.949Z,100253.49
2018-08-06T07:08:20.419Z,100242.61
2018-08-06T07:11:18.069Z,100245.66
2018-08-06T07:14:16.569Z,100254.59
2018-08-06T07:17:14.803Z,100253.08
2018-08-06T07:20:13.163Z,100252.59
2018-08-06T07:23:11.117Z,100253.67
2018-08-06T07:26:09.489Z,100254.53
2018-08-06T07:29:07.376Z,100258.27
2018-08-06T07:32:05.921Z,100255.45
2018-08-06T07:35:03.688Z,100258.20
2018-08-06T07:46:12.687Z,100248.19
2018-08-06T07:49:10.938Z,100256.73
2018-08-06T07:52:09.171Z,100252.95
2018-08-06T07:55:07.275Z,100253.20
2018-08-06T07:58:05.696Z,100250.73
2018-08-06T08:01:03.667Z,100246.19
2018-08-06T08:04:02.295Z,100247.12
2018-08-06T08:07:00.452Z,100245.14
2018-08-06T08:09:59.368Z,100239.66
2018-08-06T08:12:57.451Z,100239.30
2018-08-06T08:15:55.473Z,100243.95
2018-08-06T08:18:53.686Z,100237.56
2018-08-06T08:21:51.855Z,100235.10
2018-08-06T08:24:50.020Z,100234.48
2018-08-06T08:27:49.223Z,100230.74
2018-08-06T08:30:48.331Z,100217.67
2018-08-06T08:33:46.203Z,100230.61
2018-08-06T08:36:44.161Z,100226.48
2018-08-06T08:39:42.231Z,100224.19
2018-08-06T08:42:40.231Z,100224.95
2018-08-06T08:45:39.574Z,100221.28
2018-08-06T08:48:37.473Z,100217.36
2018-08-06T08:51:35.965Z,100222.06
2018-08-06T08:54:34.797Z,100217.43
2018-08-06T08:57:34.485Z,100208.25
2018-08-06T09:00:35.335Z,100211.98
2018-08-06T09:03:33.662Z,100214.66
2018-08-06T09:06:31.583Z,100206.80
2018-08-06T09:09:31.071Z,100205.48
2018-08-06T09:12:29.303Z,100201.49
2018-08-06T09:15:35.576Z,100203.84
2018-08-06T09:18:34.996Z,100195.80
2018-08-06T09:21:33.499Z,100203.59
2018-08-06T09:24:31.859Z,100199.85
2018-08-06T09:27:30.429Z,100204.73
2018-08-06T09:30:32.004Z,100200.04
2018-08-06T09:33:31.355Z,100194.50
2018-08-06T09:36:29.264Z,100190.09
2018-08-06T09:39:29.226Z,100195.08
2018-08-06T09:42:27.491Z,100191.19
2018-08-06T09:45:27.079Z,100196.55
2018-08-06T09:48:25.871Z,100198.02
2018-08-06T09:51:24.240Z,100189.44
2018-08-06T09:54:23.293Z,100193.41
2018-08-06T09:57:21.667Z,100193.91
2018-08-06T10:00:27.273Z,100186.91
2018-08-06T10:03:25.575Z,100175.86
2018-08-06T10:06:23.837Z,100176.97
2018-08-06T10:09:23.432Z,100175.81
2018-08-06T10:12:21.651Z,100178.62
2018-08-06T10:15:21.088Z,100176.78
2018-08-06T10:18:19.057Z,100175.27
2018-08-06T10:21:17.256Z,100165.33
2018-08-06T10:24:15.395Z,100167.70
2018-08-06T10:27:14.692Z,100163.78
2018-08-06T10:30:13.397Z,100155.63
2018-08-06T10:33:11.444Z,100165.25
2018-08-06T10:36:09.878Z,100162.63
2018-08-06T10:39:09.068Z,100160.94
2018-08-06T10:42:08.572Z,100154.50
2018-08-06T10:45:07.028Z,100161.46
2018-08-06T10:48:06.108Z,100159.72
2018-08-06T10:51:05.370Z,100164.34
2018-08-06T10:54:03.396Z,100160.58
2018-08-06T10:57:01.552Z,100158.13
2018-08-06T10:59:59.600Z,100152.30
2018-08-06T11:02:59.070Z,100145.90
2018-08-06T11:05:56.812Z,100141.38
2018-08-06T11:08:54.829Z,100139.54
2018-08-06T11:11:53.115Z,100132.86
2018-08-06T11:14:51.408Z,100130.41
2018-08-06T11:17:50.599Z,100142.50
2018-08-06T11:20:49.164Z,100129.15
2018-08-06T11:23:46.991Z,100128.06
2018-08-06T11:26:45.015Z,100125.63
2018-08-06T11:29:43.147Z,100114.99
2018-08-06T11:32:41.563Z,100122.34
2018-08-06T11:35:39.591Z,100126.33
2018-08-06T11:38:38.017Z,100117.08
2018-08-06T11:41:36.103Z,100119.72
2018-08-06T11:44:34.764Z,100121.53
2018-08-06T11:47:33.044Z,100120.44
2018-08-06T11:50:32.319Z,100109.02
2018-08-06T11:53:30.706Z,100113.42
2018-08-06T11:56:29.056Z,100104.17
2018-08-06T11:59:26.911Z,100105.73
2018-08-06T12:02:25.349Z,100108.06
2018-08-06T12:05:24.864Z,100109.98
2018-08-06T12:08:22.906Z,100102.89
2018-08-06T12:11:21.102Z,100099.20
2018-08-06T12:14:20.257Z,100100.41
2018-08-06T12:17:19.071Z,100088.22
2018-08-06T12:20:23.434Z,100086.98
2018-08-06T12:23:21.644Z,100087.77
2018-08-06T12:26:19.748Z,100096.86
2018-08-06T12:29:17.780Z,100083.65
2018-08-06T12:32:16.101Z,100088.01
2018-08-06T12:35:16.032Z,100084.48
2018-08-06T12:38:14.414Z,100076.14
2018-08-06T12:41:12.253Z,100078.75
2018-08-06T12:44:10.687Z,100068.05
2018-08-06T12:47:08.432Z,100062.45
2018-08-06T12:50:06.833Z,100059.67
2018-08-06T12:53:05.155Z,100054.31
2018-08-06T12:56:04.450Z,100064.25
2018-08-06T12:59:02.268Z,100061.98
2018-08-06T13:02:00.605Z,100061.56
2018-08-06T13:04:58.729Z,100058.08
2018-08-06T13:07:56.903Z,100061.37
2018-08-06T13:10:58.475Z,100065.08
2018-08-06T13:13:57.131Z,100061.95
2018-08-06T13:16:55.100Z,100048.21
2018-08-06T13:19:53.734Z,100051.72
2018-08-06T13:22:51.830Z,100049.44
2018-08-06T13:25:50.077Z,100052.03
2018-08-06T13:28:47.775Z,100052.78
2018-08-06T13:31:45.890Z,100041.69
2018-08-06T13:34:44.937Z,100033.91
2018-08-06T13:37:43.446Z,100024.74
2018-08-06T13:40:41.972Z,100032.59
2018-08-06T13:43:40.120Z,100030.78
2018-08-06T13:46:38.183Z,100033.27
2018-08-06T13:49:37.548Z,100024.83
2018-08-06T13:52:36.452Z,100033.56
2018-08-06T13:55:35.170Z,100027.34
2018-08-06T13:58:33.264Z,100020.28
2018-08-06T14:01:31.485Z,100020.13
2018-08-06T14:04:29.362Z,100011.55
2018-08-06T14:07:27.814Z,100023.72
2018-08-06T14:10:26.944Z,100012.55
2018-08-06T14:13:25.198Z,100007.27
2018-08-06T14:16:24.413Z,100003.13
2018-08-06T14:19:22.585Z,99998.70
2018-08-06T14:22:20.717Z,100002.25
2018-08-06T14:25:20.918Z,99995.45
2018-08-06T14:28:18.981Z,99994.15
2018-08-06T14:31:17.113Z,99989.70
2018-08-06T14:34:15.814Z,99986.97
2018-08-06T14:37:14.151Z,99987.55
2018-08-06T14:40:12.498Z,100001.46
2018-08-06T14:43:10.789Z,99992.71
2018-08-06T14:46:09.802Z,99992.94
2018-08-06T14:49:08.106Z,99982.53
2018-08-06T14:52:06.038Z,99978.13
2018-08-06T14:55:04.363Z,99983.80
2018-08-06T14:58:03.159Z,99969.95
2018-08-06T15:01:01.555Z,99965.36
2018-08-06T15:03:59.800Z,99963.98
2018-08-06T15:06:59.561Z,99966.16
2018-08-06T15:09:58.383Z,99966.42
2018-08-06T15:12:56.819Z,99966.30
2018-08-06T15:15:55.306Z,99962.41
2018-08-06T15:18:53.490Z,99957.67
2018-08-06T15:21:52.258Z,99965.97
2018-08-06T15:24:50.994Z,99960.18
2018-08-06T15:27:50.489Z,99951.16
2018-08-06T15:30:48.860Z,99951.39
2018-08-06T15:33:46.937Z,99953.98
2018-08-06T15:36:45.077Z,99951.25
2018-08-06T15:39:43.169Z,99953.28
2018-08-06T15:42:44.692Z,99942.00
2018-08-06T15:45:42.379Z,99940.04
2018-08-06T15:48:40.759Z,99938.04
2018-08-06T15:51:38.959Z,99929.11
2018-08-06T15:54:38.067Z,99933.53
2018-08-06T15:57:36.746Z,99936.39
2018-08-06T16:00:36.044Z,99924.25
2018-08-06T16:03:34.273Z,99928.86
2018-08-06T16:06:32.726Z,99922.00
2018-08-06T16:09:31.706Z,99927.86
2018-08-06T16:12:30.697Z,99930.69
2018-08-06T16:15:30.903Z,99927.73
2018-08-06T16:18:29.423Z,99924.27
2018-08-06T16:21:27.556Z,99917.27
2018-08-06T16:24:26.013Z,99919.61
2018-08-06T16:27:24.084Z,99916.47
2018-08-06T16:30:29.417Z,99915.56
2018-08-06T16:33:27.266Z,99916.86
2018-08-06T16:36:25.343Z,99903.94
2018-08-06T16:39:25.632Z,99905.78
2018-08-06T16:42:23.675Z,99910.41
2018-08-06T16:45:21.662Z,99905.08
2018-08-06T16:48:19.903Z,99913.67
2018-08-06T16:51:17.988Z,99900.69
2018-08-06T16:54:17.233Z,99907.22
2018-08-06T16:57:15.060Z,99905.38
2018-08-06T17:00:14.298Z,99899.98
2018-08-06T17:03:13.190Z,99907.89
2018-08-06T17:06:11.649Z,99907.02
2018-08-06T17:09:09.619Z,99903.73
2018-08-06T17:12:08.269Z,99902.97
2018-08-06T17:15:06.068Z,99905.15
2018-08-06T17:18:05.091Z,99904.33
2018-08-06T17:21:04.127Z,99905.95
2018-08-06T17:24:02.651Z,99903.52
2018-08-06T17:27:01.165Z,99904.30
2018-08-06T17:29:59.398Z,99895.75
2018-08-06T17:32:57.343Z,99904.06
2018-08-06T17:35:55.655Z,99898.30
2018-08-06T17:38:53.481Z,99897.38
2018-08-06T17:41:52.911Z,99898.27
2018-08-06T17:44:50.945Z,99898.31
2018-08-06T17:47:48.951Z,99901.97
2018-08-06T17:50:47.832Z,99895.20
2018-08-06T17:53:46.116Z,99891.41
2018-08-06T17:56:44.054Z,99892.92
2018-08-06T17:59:42.673Z,99893.16
2018-08-06T18:02:42.907Z,99892.39
2018-08-06T18:05:41.340Z,99901.39
2018-08-06T18:08:39.332Z,99906.73
2018-08-06T18:11:37.357Z,99911.70
2018-08-06T18:14:35.784Z,99910.62
2018-08-06T18:17:34.400Z,99905.39
2018-08-06T18:20:33.988Z,99908.55
2018-08-06T18:23:32.868Z,99917.92
2018-08-06T18:26:31.772Z,99920.08
2018-08-06T18:29:31.144Z,99913.42
2018-08-06T18:32:30.012Z,99918.42
2018-08-06T18:35:29.313Z,99928.98
2018-08-06T18:38:27.294Z,99929.19
2018-08-06T18:41:25.939Z,99923.46
2018-08-06T18:44:24.103Z,99929.55
2018-08-06T18:47:22.459Z,99931.81
2018-08-06T18:50:22.975Z,99931.28
2018-08-06T18:53:21.247Z,99932.41
2018-08-06T18:56:19.263Z,99932.50
2018-08-06T18:59:18.891Z,99933.28
2018-08-06T19:02:16.990Z,99937.56
2018-08-06T19:05:16.760Z,99927.80
2018-08-06T19:08:16.251Z,99931.64
2018-08-06T19:11:15.121Z,99934.21
2018-08-06T19:14:20.274Z,99937.11
2018-08-06T19:17:19.031Z,99940.23
2018-08-06T19:20:17.414Z,99942.53
2018-08-06T19:23:16.102Z,99934.83
2018-08-06T19:26:15.695Z,99932.27
2018-08-06T19:29:14.445Z,99937.18
2018-08-06T19:32:12.410Z,99939.92
2018-08-06T19:35:10.901Z,99945.43
2018-08-06T19:38:09.227Z,99945.72
2018-08-06T19:41:07.900Z,99946.33
2018-08-06T19:44:06.635Z,99953.23
2018-08-06T19:47:04.891Z,99956.02
2018-08-06T19:51:08.575Z,99948.09
2018-08-06T19:54:07.296Z,99955.94
2018-08-06T19:57:05.354Z,99959.66
2018-08-06T20:00:03.882Z,99950.67
2018-08-06T20:03:01.746Z,99953.88
2018-08-06T20:06:00.115Z,99951.22
2018-08-06T20:08:58.180Z,99956.54
2018-08-06T20:11:56.419Z,99953.77
2018-08-06T20:14:54.564Z,99961.89
2018-08-06T20:17:53.023Z,99955.95
2018-08-06T20:20:51.516Z,99964.20
2018-08-06T20:23:49.813Z,99970.11
2018-08-06T20:26:48.214Z,99973.16
2018-08-06T20:29:46.956Z,99968.89
2018-08-06T20:32:46.070Z,99973.73
2018-08-06T20:35:44.706Z,99978.83
2018-08-06T20:38:42.633Z,99982.25
2018-08-06T20:41:41.150Z,99977.69
2018-08-06T20:44:39.631Z,99986.28
2018-08-06T20:47:38.011Z,99985.83
2018-08-06T20:50:38.408Z,99992.78
2018-08-06T20:53:37.725Z,99997.66
2018-08-06T20:56:36.878Z,100002.15
2018-08-06T20:59:35.379Z,100008.01
2018-08-06T21:02:36.660Z,100003.78
2018-08-06T21:05:34.570Z,100008.90
2018-08-06T21:08:32.945Z,100014.31
2018-08-06T21:11:31.361Z,100015.55
2018-08-06T21:14:29.243Z,100019.02
2018-08-06T21:17:27.332Z,100025.86
2018-08-06T21:20:27.499Z,100027.73
2018-08-06T21:23:27.103Z,100021.31
2018-08-06T21:26:26.302Z,100025.42
2018-08-06T21:29:24.687Z,100016.75
2018-08-06T21:32:23.240Z,100018.94
2018-08-06T21:35:23.481Z,100018.48
2018-08-06T21:38:21.984Z,100022.69
2018-08-06T21:41:20.286Z,100025.20
2018-08-06T21:44:18.768Z,100031.50
2018-08-06T21:47:17.961Z,100032.15
2018-08-06T21:50:16.759Z,100034.34
2018-08-06T21:53:14.847Z,100031.09
2018-08-06T21:56:14.923Z,100025.78
2018-08-06T21:59:13.247Z,100033.48
2018-08-06T22:02:11.746Z,100027.38
2018-08-06T22:05:09.770Z,100028.47
2018-08-06T22:08:08.890Z,100023.44
2018-08-06T22:11:07.029Z,100029.77
2018-08-06T22:14:06.382Z,100021.28
2018-08-06T22:17:05.067Z,100030.44
2018-08-06T22:20:03.612Z,100034.73
2018-08-06T22:23:03.035Z,100032.49
2018-08-06T22:26:01.384Z,100033.27
2018-08-06T22:28:59.150Z,100040.89
2018-08-06T22:31:58.625Z,100038.87
2018-08-06T22:34:57.596Z,100030.56
2018-08-06T22:37:55.783Z,100034.01
2018-08-06T22:40:54.749Z,100032.88
2018-08-06T22:43:53.206Z,100032.69
2018-08-06T22:46:51.405Z,100033.16
2018-08-06T22:49:49.838Z,100030.56
2018-08-06T22:52:48.755Z,100026.20
2018-08-06T22:55:52.975Z,100024.95
2018-08-06T22:58:51.513Z,100021.00
2018-08-06T23:01:50.481Z,100025.58
2018-08-06T23:04:48.462Z,100029.58
2018-08-06T23:07:47.158Z,100028.16
2018-08-06T23:10:45.295Z,100034.77
2018-08-06T23:13:43.984Z,100036.86
2018-08-06T23:16:42.227Z,100035.75
2018-08-06T23:19:42.016Z,100035.94
2018-08-06T23:22:39.983Z,100035.56
2018-08-06T23:25:37.881Z,100020.33
2018-08-06T23:28:36.130Z,100023.56
2018-08-06T23:31:34.663Z,100019.38
2018-08-06T23:34:32.503Z,100021.11
2018-08-06T23:37:31.811Z,100014.28
2018-08-06T23:40:29.779Z,100014.16
2018-08-06T23:43:29.254Z,100013.14
2018-08-06T23:46:27.131Z,100015.95
2018-08-06T23:49:25.477Z,100012.25
2018-08-06T23:52:23.868Z,100013.10
2018-08-06T23:55:22.976Z,100015.55
2018-08-06T23:58:21.000Z,100020.67
